• Join FlightAware (Why Join?)
  • Login
  • US Flag 
01:35AM EDT


 

Airport Tracker/Info


-or-


 

Live Flight TrackerFlight Track Log ✈ DAL968 ✈ 30-Jun-2013 ✈ KSEA - KATL

Flight Track Log - Related Links

Times and Time Zones

All times are in EDT time to prevent confusion due to time zone crossing. See the DAL968 flight status page for this flight to view local times or setup timezone preferences in your user account.

Time Position Orientation Groundspeed Altitude Reporting Facility
EDT Latitude Longitude Course Direction KTS MPH feet Rate Location/Type
09:37AM 47.4656 -122.3069 90° East 168 193 1,400  Level Seattle Center
09:38AM 47.5100 -122.3106 357° North 195 224 2,800 1,860 Climbing Seattle Center
09:39AM 47.5803 -122.3117 359° North 252 290 5,000 2,220 Climbing Seattle Center
09:40AM 47.4167 -121.7240 90° East  Level FlightAware Approximate
09:40AM 47.6292 -122.2308 48° Northeast 275 316 7,300  Level Seattle Center
09:41AM 47.4167 -121.5308 90° East  Level FlightAware Approximate
09:41AM 47.5917 -122.1286 119° Southeast 285 328 10,000  Level Seattle Center
09:42AM 47.4167 -121.3377 90° East  Level FlightAware Approximate
09:42AM 47.5489 -122.0217 121° Southeast 301 346 11,900  Level Seattle Center
09:43AM 47.4997 -121.8883 119° Southeast 369 425 13,300 1,680 Climbing Seattle Center
09:44AM 47.4714 -121.7283 105° East 402 463 15,300 1,980 Climbing Seattle Center
09:45AM 47.4464 -121.5583 102° East 421 484 17,400 1,740 Climbing Seattle Center
09:46AM 47.4225 -121.3972 102° East 429 494 18,900 1,500 Climbing Seattle Center
09:47AM 47.3950 -121.2211 103° East 442 509 20,500 1,620 Climbing Seattle Center
09:48AM 47.3675 -121.0394 103° East 456 525 22,200 1,680 Climbing Seattle Center
09:49AM 47.3350 -120.8297 103° East 468 539 23,900 1,440 Climbing Seattle Center
09:50AM 47.3039 -120.6369 103° East 482 555 25,200 1,260 Climbing Seattle Center
09:51AM 47.2728 -120.4408 103° East 492 566 26,500 1,140 Climbing Seattle Center
09:52AM 47.2394 -120.2394 104° East 507 583 27,600 1,080 Climbing Seattle Center
09:53AM 47.2061 -120.0342 103° East 517 595 28,700 1,140 Climbing Seattle Center
09:54AM 47.1717 -119.8261 104° East 524 603 29,900 1,320 Climbing Seattle Center
09:55AM 47.1361 -119.6178 104° East 529 609 31,400 1,380 Climbing Seattle Center
09:56AM 47.1014 -119.4136 104° East 522 601 32,700 1,320 Climbing Seattle Center
09:57AM 47.0650 -119.2078 104° East 523 602 34,100 1,140 Climbing Seattle Center
09:58AM 47.0306 -119.0081 104° East 517 595 35,000 420 Climbing Seattle Center
09:59AM 46.9961 -118.8067 104° East 514 592 35,000  Level Seattle Center
10:00AM 46.9622 -118.6086 104° East 510 587 35,000  Level Seattle Center
10:01AM 46.9261 -118.4103 105° East 507 583 35,000  Level Seattle Center
10:02AM 46.8897 -118.2128 105° East 508 585 35,000  Level Seattle Center
10:03AM 46.8539 -118.0150 105° East 507 583 35,000  Level Seattle Center
10:04AM 46.8164 -117.8169 105° East 509 586 35,000  Level Seattle Center
10:05AM 46.7783 -117.6189 106° East 510 587 35,000  Level Seattle Center
10:06AM 46.7333 -117.3814 105° East 511 588 35,000  Level Seattle Center
10:07AM 46.6961 -117.1842 105° East 510 587 35,000  Level Seattle Center
10:08AM 46.6567 -116.9875 106° East 510 587 35,000  Level Seattle Center
10:09AM 46.6189 -116.7869 105° East 517 595 35,000  Level Seattle Center
10:10AM 46.5794 -116.5897 106° East 513 590 35,000  Level Seattle Center
10:11AM 46.5392 -116.3942 107° East 509 586 35,000  Level Seattle Center
10:12AM 46.5006 -116.1961 106° East 510 587 35,000  Level Seattle Center
10:13AM 46.4606 -115.9983 106° East 513 590 35,000  Level Seattle Center
10:14AM 46.4197 -115.8044 107° East 508 585 35,000  Level Seattle Center
10:15AM 46.3792 -115.6083 107° East 509 586 35,000  Level Seattle Center
10:16AM 46.3383 -115.4131 107° East 509 586 35,000  Level Seattle Center
10:17AM 46.2964 -115.2183 107° East 509 586 35,000  Level Seattle Center
10:18AM 46.2528 -115.0128 107° East 509 586 35,000  Level Seattle Center
10:19AM 46.2108 -114.8197 107° East 508 585 35,000  Level Seattle Center
10:20AM 46.1683 -114.6261 108° East 508 585 35,000  Level Seattle Center
10:21AM 46.1428 -114.5103 108° East 509 586 35,000  Level Salt Lake Center
10:22AM 46.1006 -114.3186 108° East 506 582 35,000  Level Salt Lake Center
10:23AM 46.0567 -114.1269 108° East 507 583 35,000  Level Salt Lake Center
10:24AM 46.0131 -113.9328 108° East 511 588 35,000  Level Salt Lake Center
10:25AM 45.9600 -113.7008 108° East 512 589 35,000  Level Salt Lake Center
10:26AM 45.9189 -113.5242 108° East 511 588 35,000  Level Salt Lake Center
10:27AM 45.8747 -113.3306 108° East 511 588 35,000  Level Salt Lake Center
10:28AM 45.8294 -113.1383 109° East 510 587 35,000  Level Salt Lake Center
10:29AM 45.7742 -112.9078 109° East 511 588 35,000  Level Salt Lake Center
10:30AM 45.7292 -112.7158 109° East 509 586 35,000  Level Salt Lake Center
10:31AM 45.6831 -112.5250 109° East 508 585 35,000  Level Salt Lake Center
10:32AM 45.6369 -112.3342 109° East 509 586 35,000  Level Salt Lake Center
10:33AM 45.5889 -112.1461 110° East 506 582 35,000  Level Salt Lake Center
10:34AM 45.5433 -111.9558 109° East 509 586 35,000  Level Salt Lake Center
10:35AM 45.4961 -111.7692 110° East 505 581 35,000  Level Salt Lake Center
10:36AM 45.4400 -111.5450 110° East 505 581 35,000  Level Salt Lake Center
10:37AM 45.3922 -111.3597 110° East 505 581 35,000  Level Salt Lake Center
10:38AM 45.3458 -111.1747 110° East 503 579 35,000  Level Salt Lake Center
10:39AM 45.2986 -110.9906 110° East 501 577 35,000  Level Salt Lake Center
10:40AM 45.2511 -110.8064 110° East 500 575 35,000  Level Salt Lake Center
10:41AM 45.2031 -110.6244 110° East 496 571 35,000  Level Salt Lake Center
10:42AM 45.1503 -110.4269 111° Southeast 496 571 35,000  Level Salt Lake Center
10:43AM 45.0956 -110.2233 111° Southeast 495 570 35,000  Level Salt Lake Center
10:44AM 45.0481 -110.0486 111° Southeast 495 570 35,000  Level Salt Lake Center
10:45AM 44.9933 -109.8456 111° Southeast 494 568 35,000  Level Salt Lake Center
10:46AM 44.9461 -109.6697 111° Southeast 498 573 35,000  Level Salt Lake Center
10:47AM 44.8981 -109.4961 111° Southeast 497 572 35,000  Level Salt Lake Center
10:48AM 44.8408 -109.2931 112° Southeast 498 573 35,000  Level Salt Lake Center
10:49AM 44.7922 -109.1175 111° Southeast 500 575 35,000  Level Salt Lake Center
10:51AM 44.7342 -108.9150 112° Southeast 500 575 35,000  Level Salt Lake Center
10:52AM 44.6853 -108.7417 112° Southeast 499 574 35,000  Level Salt Lake Center
10:53AM 44.6289 -108.5394 111° Southeast 498 573 35,000  Level Salt Lake Center
10:54AM 44.5797 -108.3675 112° Southeast 497 572 35,000  Level Salt Lake Center
10:55AM 44.5300 -108.1958 112° Southeast 497 572 35,000  Level Salt Lake Center
10:56AM 44.4717 -107.9956 112° Southeast 498 573 35,000  Level Salt Lake Center
10:57AM 44.4208 -107.8203 112° Southeast 501 577 35,000  Level Salt Lake Center
10:58AM 44.3611 -107.6217 113° Southeast 497 572 35,000  Level Salt Lake Center
10:59AM 44.3119 -107.4553 112° Southeast 497 572 35,000  Level Salt Lake Center
11:00AM 44.2503 -107.2517 113° Southeast 500 575 35,000  Level Salt Lake Center
11:01AM 44.1992 -107.0867 113° Southeast 499 574 35,000  Level Salt Lake Center
11:02AM 44.1392 -106.8864 113° Southeast 501 577 35,000  Level Salt Lake Center
11:03AM 44.0864 -106.7147 113° Southeast 503 579 35,000  Level Salt Lake Center
11:04AM 44.0508 -106.6000 113° Southeast 503 579 35,000  Level Denver Center
11:05AM 43.9894 -106.4017 113° Southeast 502 578 35,000  Level Denver Center
11:06AM 43.9422 -106.2281 111° Southeast 502 578 35,000  Level Denver Center
11:07AM 43.8867 -106.0258 111° Southeast 503 579 35,000  Level Denver Center
11:08AM 43.8381 -105.8519 111° Southeast 504 580 35,000  Level Denver Center
11:09AM 43.7806 -105.6517 112° Southeast 503 579 35,000  Level Denver Center
11:10AM 43.7306 -105.4786 112° Southeast 504 580 35,000  Level Denver Center
11:11AM 43.6725 -105.2781 112° Southeast 504 580 35,000  Level Denver Center
11:12AM 43.6222 -105.1050 112° Southeast 504 580 35,000  Level Denver Center
11:13AM 43.5717 -104.9322 112° Southeast 505 581 35,000  Level Denver Center
11:14AM 43.5125 -104.7317 112° Southeast 505 581 35,000  Level Denver Center
11:15AM 43.4611 -104.5592 112° Southeast 506 582 35,000  Level Denver Center
11:16AM 43.4017 -104.3578 112° Southeast 506 582 35,000  Level Denver Center
11:17AM 43.3489 -104.1858 113° Southeast 507 583 35,000  Level Denver Center
11:18AM 43.2883 -103.9856 112° Southeast 507 583 35,000  Level Denver Center
11:19AM 43.2356 -103.8150 113° Southeast 506 582 35,000  Level Denver Center
11:20AM 43.1736 -103.6144 113° Southeast 508 585 35,000  Level Denver Center
11:21AM 43.1294 -103.4722 113° Southeast 508 585 35,000  Level Denver Center
11:22AM 43.0650 -103.2711 114° Southeast 514 592 35,000  Level Denver Center
11:23AM 43.0036 -103.0703 113° Southeast 514 592 35,000  Level Denver Center
11:24AM 42.9489 -102.8997 114° Southeast 512 589 35,000  Level Denver Center
11:25AM 42.8844 -102.6997 114° Southeast 514 592 35,000  Level Denver Center
11:26AM 42.8300 -102.5292 113° Southeast 512 589 35,000  Level Denver Center
11:27AM 42.7650 -102.3303 114° Southeast 514 592 35,000  Level Denver Center
11:28AM 42.7100 -102.1600 114° Southeast 514 592 35,000  Level Denver Center
11:29AM 42.6444 -101.9631 114° Southeast 512 589 35,000  Level Denver Center
11:30AM 42.5978 -101.8222 114° Southeast 513 590 35,000  Level Denver Center
11:31AM 42.5303 -101.6153 114° Southeast 512 589 35,000  Level Denver Center
11:33AM 42.4650 -101.4189 114° Southeast 512 589 35,000  Level Denver Center
11:34AM 42.4083 -101.2517 115° Southeast 511 588 35,000  Level Denver Center
11:35AM 42.3422 -101.0569 115° Southeast 510 587 35,000  Level Denver Center
11:36AM 42.2856 -100.8903 115° Southeast 510 587 35,000  Level Denver Center
11:37AM 42.2289 -100.7247 115° Southeast 509 586 35,000  Level Denver Center
11:38AM 42.1608 -100.5308 115° Southeast 510 587 35,000  Level Denver Center
11:39AM 42.0842 -100.3094 115° Southeast 510 587 35,000  Level Denver Center
11:40AM 42.0261 -100.1428 115° Southeast 512 589 35,000  Level Denver Center
11:41AM 41.9908 -100.0419 115° Southeast 510 587 35,000  Level Minneapolis Center
11:42AM 41.9300 -99.8697 115° Southeast 510 587 35,000  Level Minneapolis Center
11:43AM 41.8558 -99.6622 116° Southeast 513 590 35,000  Level Minneapolis Center
11:44AM 41.7933 -99.4900 116° Southeast 512 589 35,000  Level Minneapolis Center
11:45AM 41.7311 -99.3183 116° Southeast 512 589 35,000  Level Minneapolis Center
11:46AM 41.6692 -99.1458 116° Southeast 512 589 35,000  Level Minneapolis Center
11:47AM 41.6056 -98.9722 116° Southeast 515 593 35,000  Level Minneapolis Center
11:48AM 41.5403 -98.7933 116° Southeast 512 589 35,000  Level Minneapolis Center
11:49AM 41.4772 -98.6236 116° Southeast 512 589 35,000  Level Minneapolis Center
11:50AM 41.4150 -98.4544 116° Southeast 515 593 35,000  Level Minneapolis Center
11:51AM 41.3117 -98.2664 126° Southeast 523 602 35,000  Level Minneapolis Center
11:52AM 41.2069 -98.1286 135° Southeast 525 604 35,000  Level Minneapolis Center
11:53AM 41.1017 -97.9917 136° Southeast 526 605 35,000  Level Minneapolis Center
11:54AM 40.9753 -97.8269 135° Southeast 527 606 35,000  Level Minneapolis Center
11:55AM 40.8708 -97.6903 135° Southeast 527 606 35,000  Level Minneapolis Center
11:56AM 40.7664 -97.5542 135° Southeast 527 606 35,000  Level Minneapolis Center
11:57AM 40.6606 -97.4178 136° Southeast 530 610 35,000  Level Minneapolis Center
11:58AM 40.5394 -97.2622 136° Southeast 529 609 35,000  Level Minneapolis Center
11:59AM 40.4342 -97.1272 136° Southeast 531 611 35,000  Level Minneapolis Center
12:00PM 40.3286 -96.9931 136° Southeast 530 610 35,000  Level Minneapolis Center
12:02PM 40.2236 -96.8575 135° Southeast 532 612 35,000  Level Minneapolis Center
12:03PM 40.1186 -96.7256 136° Southeast 529 609 35,000  Level Minneapolis Center
12:04PM 39.9700 -96.5414 136° Southeast 527 606 35,000  Level Minneapolis Center
12:05PM 39.8650 -96.4092 136° Southeast 528 608 35,000  Level Minneapolis Center
12:06PM 39.7697 -96.2906 136° Southeast 533 613 35,000  Level Kansas City Center
12:07PM 39.6672 -96.1631 136° Southeast 534 615 35,000  Level Kansas City Center
12:08PM 39.5469 -96.0161 137° Southeast 533 613 35,000  Level Kansas City Center
12:09PM 39.4444 -95.8894 136° Southeast 532 612 35,000  Level Kansas City Center
12:10PM 39.3253 -95.7439 137° Southeast 531 611 35,000  Level Kansas City Center
12:11PM 39.2239 -95.6194 136° Southeast 529 609 35,000  Level Kansas City Center
12:12PM 39.1056 -95.4778 137° Southeast 526 605 35,000  Level Kansas City Center
12:13PM 39.0039 -95.3558 137° Southeast 530 610 35,000  Level Kansas City Center
12:14PM 38.8711 -95.2344 145° Southeast 531 611 35,000  Level Kansas City Center
12:15PM 38.7561 -95.1336 146° Southeast 526 605 35,000  Level Kansas City Center
12:16PM 38.6206 -95.0158 146° Southeast 528 608 35,000  Level Kansas City Center
12:17PM 38.5039 -94.9142 146° Southeast 529 609 35,000  Level Kansas City Center
12:18PM 38.3683 -94.7961 146° Southeast 529 609 35,000  Level Kansas City Center
12:19PM 38.2519 -94.6961 146° Southeast 528 608 35,000  Level Kansas City Center
12:20PM 38.1183 -94.5769 145° Southeast 526 605 35,000  Level Kansas City Center
12:21PM 38.0114 -94.4608 139° Southeast 528 608 35,000  Level Kansas City Center
12:22PM 37.9242 -94.3061 126° Southeast 525 604 35,000  Level Kansas City Center
12:23PM 37.8372 -94.1567 126° Southeast 525 604 35,000  Level Kansas City Center
12:24PM 37.7350 -93.9786 126° Southeast 523 602 35,000  Level Kansas City Center
12:25PM 37.6478 -93.8317 127° Southeast 522 601 35,000  Level Kansas City Center
12:27PM 37.4753 -93.5364 126° Southeast 523 602 35,000  Level Kansas City Center
12:28PM 37.3872 -93.3900 127° Southeast 524 603 35,000  Level Kansas City Center
12:29PM 37.2978 -93.2461 128° Southeast 525 604 35,000  Level Kansas City Center
12:30PM 37.1844 -93.0778 130° Southeast 526 605 35,000  Level Kansas City Center
12:32PM 37.0914 -92.9372 130° Southeast 526 605 35,000  Level Kansas City Center
12:33PM 36.9972 -92.7975 130° Southeast 526 605 35,000  Level Kansas City Center
12:34PM 36.9031 -92.6597 130° Southeast 524 603 35,000  Level Kansas City Center
12:35PM 36.8086 -92.5225 131° Southeast 524 603 35,000  Level Kansas City Center
12:36PM 36.7147 -92.3839 130° Southeast 523 602 35,000  Level Kansas City Center
12:37PM 36.6014 -92.2172 130° Southeast 523 602 35,000  Level Kansas City Center
12:38PM 36.5161 -92.0931 130° Southeast 525 604 35,000  Level Kansas City Center
12:39PM 36.4208 -91.9556 131° Southeast 524 603 35,000  Level Kansas City Center
12:40PM 36.3278 -91.8197 130° Southeast 519 597 35,000  Level Kansas City Center
12:41PM 36.2103 -91.6586 132° Southeast 520 598 35,000  Level Memphis Center
12:42PM 36.1156 -91.5286 132° Southeast 520 598 35,000  Level Memphis Center
12:43PM 36.0272 -91.3989 130° Southeast 508 585 35,000  Level Memphis Center
12:44PM 35.9383 -91.2722 131° Southeast 502 578 35,000  Level Memphis Center
12:45PM 35.8517 -91.1508 131° Southeast 487 560 35,000  Level Memphis Center
12:47PM 35.6758 -90.8936 130° Southeast 476 548 35,000  Level Memphis Center
12:48PM 35.6139 -90.7503 118° Southeast 471 542 35,000  Level Memphis Center
12:49PM 35.5703 -90.5944 109° East 471 542 35,000  Level Memphis Center
12:50PM 35.5267 -90.4386 109° East 476 548 35,000  Level Memphis Center
12:51PM 35.4850 -90.2856 108° East 476 548 35,000  Level Memphis Center
12:52PM 35.4411 -90.1303 109° East 481 554 35,000  Level Memphis Center
12:53PM 35.3989 -89.9903 110° East 481 554 35,000  Level Memphis Center
12:55PM 35.3304 -89.7507 109° East  Level FlightAware Approximate
12:56PM 35.2675 -89.5281 109° East 481 554 35,000  Level Memphis Center
12:57PM 35.2161 -89.3658 111° Southeast 481 554 35,000  Level Memphis Center
12:58PM 35.1711 -89.2139 110° East 476 548 35,000  Level Memphis Center
12:59PM 35.1258 -89.0647 110° East 471 542 35,000  Level Memphis Center
01:00PM 35.0886 -88.9056 106° East 471 542 35,000  Level Memphis Center
01:01PM 35.0533 -88.7514 106° East 471 542 35,000  Level Memphis Center
01:02PM 35.0197 -88.5972 105° East 471 542 35,000 -240 Level Memphis Center
01:03PM 34.9867 -88.4611 106° East 471 542 34,600 -600 Descending Memphis Center
01:04PM 34.9506 -88.3025 105° East 471 542 33,900 -720 Descending Memphis Center
01:06PM 34.8957 -88.0588 105° East  Level FlightAware Approximate
01:06PM 34.8783 -87.9853 105° East 493 567 32,500  Level Memphis Center
01:07PM 34.8375 -87.8269 107° East 488 562 31,800 -600 Descending Memphis Center
01:09PM 34.7828 -87.5742 105° East 484 557 31,000 -360 Descending Atlanta Center
01:10PM 34.7436 -87.4133 106° East 484 557 31,000  Level Atlanta Center
01:11PM 34.7039 -87.2525 107° East 484 557 31,000  Level Atlanta Center
01:12PM 34.6642 -87.0919 107° East 489 563 31,000  Level Atlanta Center
01:13PM 34.6244 -86.9317 107° East 489 563 31,000  Level Atlanta Center
01:14PM 34.5842 -86.7711 107° East 489 563 31,000 -60 Level Atlanta Center
01:15PM 34.5458 -86.6161 107° East 489 563 30,900 -360 Descending Atlanta Center
01:16PM 34.5072 -86.4586 107° East 482 555 30,300 -780 Descending Atlanta Center
01:17PM 34.4706 -86.3039 106° East 482 555 29,400 -960 Descending Atlanta Center
01:18PM 34.4294 -86.1517 108° East 482 555 28,400 -1,080 Descending Atlanta Center
01:19PM 34.3903 -85.9997 107° East 482 555 27,300 -1,200 Descending Atlanta Center
01:20PM 34.3550 -85.8531 106° East 475 547 26,000 -1,380 Descending Atlanta Center
01:21PM 34.3153 -85.6961 107° East 451 519 24,600 -1,380 Descending Atlanta Center
01:22PM 34.2775 -85.5547 108° East 439 505 23,300 -1,620 Descending Atlanta Center
01:23PM 34.2417 -85.4183 108° East 439 505 21,400 -2,100 Descending Atlanta Center
01:24PM 34.2117 -85.2972 107° East 430 495 19,200 -2,460 Descending Atlanta Center
01:25PM 34.1753 -85.1661 109° East 416 479 16,500 -2,400 Descending Atlanta Center
01:26PM 34.1178 -85.0600 123° Southeast 385 443 14,400 -1,260 Descending Atlanta Center
01:27PM 34.0453 -84.9714 135° Southeast 372 428 14,000 -1,020 Descending Atlanta Center
01:28PM 33.9772 -84.8806 132° Southeast 366 421 12,400 -780 Descending Atlanta Center
01:29PM 33.8667 -84.7333 132° Southeast 357 411 12,000 -180 Descending Atlanta TRACON
01:30PM 33.8000 -84.6500 134° Southeast 348 400 12,000 -480 Level Atlanta TRACON
01:32PM 33.7333 -84.5000 118° Southeast 267 307 10,700 -1,020 Descending Atlanta TRACON
01:33PM 33.7333 -84.4167 90° East 271 312 9,100 -1,740 Descending Atlanta TRACON
01:34PM 33.7333 -84.3333 90° East 252 290 7,500 -1,620 Descending Atlanta TRACON